Pagrindinis puslapis
METAR-TAF:

METAR-TAF

Oro uostai :

Chièvres, Belgija

platuma: 50-34N, ilguma: 003-50E, Aukštis: 60 m

Dabartinis oras

Ataskaita buvo paskelbta 30 minutes, ne 04:25 UTC
Vėjas 4 kt iš Rytų
Temperatūra 11°C
Drėgmė 66%
Slėgis 1021 hPa
Matomumas 10 km arba daugiau

METAR: EBCV 310425Z AUTO 08004KT 9999 NCD 11/05 Q1021 BLU

Laikas: 06:55 (04:55 UTC)

Prognozė

Ataskaita buvo paskelbta 13 valandos ir 14 minutes, ne 15:41 UTC
Prognozė galioja nuo 30 metu 19 UTC su 31 metu 07 UTC
Vėjas 10 kt iš Rytų
Matomumas 10 km arba daugiau
Mažai debesys ne aukštis 7000 ft
Tapsmas
nuo 30 metu 22 UTC su 30 metu 24 UTC
Vėjas 5 kt iš Rytų

TAF: EBCV 301541Z 3019/3107 08010KT 9999 FEW070 BECMG 3022/3024 08005KT BY EBWM

Orai ataskaitas ir orų prognozės (METAR, TAF).

turimą stotys yra geltonos ir raudonos taškus žemėlapyje.

Perkelti pele per norėdami pamatyti stoties vardą.

Tada spustelėkite, norėdami matyti oro stebėjimo ir prognozės.

Norėdami pakeisti žemėlapį: spustelėkite ant žalios mygtukų su juodo kryžiaus žemyn,; žalią mygtuką su brūkšneliu, jei norite nutolinti; arba žalių rodyklių gretimoms žemėlapius.


METAR-TAF: